KAUS/AUS METAR and TAF weather

Enter ICAO airport designator
Station Type Date Time Source
KAUS METAR 2021/09/23 18:53 UTC NOAA

KAUS 231853Z VRB03KT 10SM FEW300 28/03 A3008 RMK AO2 SLP180 T02780033


Station Type Date Time Source
KAUS Decoded METAR 2021/09/23 18:53 UTC NOAA

AUSTIN-BERGSTROM INTERNATIONAL AIRPORT, TX, United States (KAUS) 30-11N 097-41W 172M
Sep 23, 2021 - 02:53 PM EDT / 2021.09.23 1853 UTC
Wind: Variable at 3 MPH (3 KT):0
Visibility: 10 mile(s):0
Sky conditions: mostly clear
Temperature: 82.0 F (27.8 C)
Dew Point: 37.9 F (3.3 C)
Relative Humidity: 20%
Pressure (altimeter): 30.08 in. Hg (1018 hPa)
ob: KAUS 231853Z VRB03KT 10SM FEW300 28/03 A3008 RMK AO2 SLP180 T02780033
cycle: 19

Station Type Date Time Source
KAUS TAF 2021/09/23 18:27 UTC NOAA

TAF KAUS 231726Z 2318/2424 11004KT P6SM FEW250

Example: see airport list